Pays
Station

 

Conditions  météo  pour  Joensuu  -  Finlande    Finlande

  
21 °C
    
 
 

METAR pour Joensuu :

EFJO 231720Z AUTO 26002KT CAVOK 21/13 Q1014

 

Voici le bulletin pour Joensuu - Finlande.
 
Le bulletin a été fait il y a 25 minutes, à 17:20 UTC .
Le vent soufflait à la vitesse de 1.0 mètres par seconde de Ouest (260°).
 
La température était de 21 °C, avec un point de rosée à 13 °C.
La pression atmosphérique était de 1014 hPa.
L'humidité relative était de 60.2%.
 
Il y avait pas de nuages en-dessous de 1500 mètres et pas de cumulonimbus.
 
La visibilité globale était de supérieure à 10 kilomètres.
 

 
 
 

Pays :   A   B   C   D   E   F   G   H   I   J   K   L   M   N   O   P   Q   R   S   T   U   V   W   Y   Z

 

Partenaires :  Info Météo avec Met'info
Météo Marine avec MeteoMarine.net
Infos Site  |  Infos Légales  |  Crédits  |  Confidentialité
Contactez-nous  |  Ajouter aux favoris
© 2013-2019 METAR - Tous droits réservés